Airfield :
LOGIN :

Register | Disclaimer

   EN    FR    IT 

 










Legend :    VFR   Marginal VFR   IFR   Intensive IFR   Very Intensive IFR
Visi :
Ceiling :
>= 8 km
>= 3000ft
5 to 8 km
1000 to 3000 ft
1500m to 5 km
500 to 1000 ft
800 to 1500m
200 to 500 ft
< 800m
< 200 ft
Symbols :   Thunderstorms  Fog  Heavy snow  Heavy precipitations  Wind > 20 kt
SIGMETs :     Misc.  Thunderstorms  Icing  Turbulence  Mountain Waves  Volcanic Ashes







- Airport Elevation : 7 ft
- IATA code : POW


LJPZ - Portoroz

CURRENT METAR :
  • 212300Z AUTO 12008KT 9999 NCD 11/10 Q1019

EXPIRED METARs :
  • 212230Z AUTO 12009KT 9999 NCD 11/10 Q1019
  • 212200Z AUTO 12009KT 9999 NCD 12/10 Q1019
  • 212130Z AUTO 12009KT 9999 NCD 12/10 Q1019
  • 212100Z AUTO 12008KT 9999 NCD 12/10 Q1019
  • 212030Z AUTO 12010KT 9999 NCD 12/10 Q1019
  • 212000Z 12009KT CAVOK 13/11 Q1019

TAF TAF LJPZ
Valid from the 21 at 21:00 until the 22 at 06:00 UTC


212000Z 2121/2206 12005KT CAVOK
No reported NOTAMs for that airfield.



MET'MAP, your aeronautical weather chart ! - Copyright ORBIFLY December 2007 - Disclaimer

ORBIFLY MET'MAP TEAM :

Programming & Development : Alexandra Zaïnal
Concept & Development : Baudouin d'Aumeries
Co-Development & Prog : Marc-Olivier Méhu
Technical & hardware support : Manuel Goepfert

Contact : metmap@orbifly.com




SOURCES & CREDITS :

   NOAA